sensor_id;sensor_type;location;lat;lon;timestamp;P1;durP1;ratioP1;P2;durP2;ratioP2
71558;SDS011;59382;43.852;25.952;2023-01-20T00:01:16;4.28;;;2.08;;
71558;SDS011;59382;43.852;25.952;2023-01-20T00:03:42;7.60;;;2.22;;
71558;SDS011;59382;43.852;25.952;2023-01-20T00:06:09;8.27;;;2.50;;
71558;SDS011;59382;43.852;25.952;2023-01-20T00:08:35;6.97;;;2.70;;
71558;SDS011;59382;43.852;25.952;2023-01-20T00:11:05;4.55;;;2.35;;
71558;SDS011;59382;43.852;25.952;2023-01-20T00:13:32;6.97;;;2.17;;
71558;SDS011;59382;43.852;25.952;2023-01-20T00:16:00;5.00;;;3.03;;
71558;SDS011;59382;43.852;25.952;2023-01-20T00:18:27;3.83;;;1.90;;
71558;SDS011;59382;43.852;25.952;2023-01-20T00:20:53;6.30;;;1.60;;
71558;SDS011;59382;43.852;25.952;2023-01-20T00:23:19;6.57;;;1.60;;
71558;SDS011;59382;43.852;25.952;2023-01-20T00:25:44;6.72;;;1.70;;
71558;SDS011;59382;43.852;25.952;2023-01-20T00:28:10;9.80;;;2.85;;
71558;SDS011;59382;43.852;25.952;2023-01-20T00:30:35;7.43;;;3.47;;
71558;SDS011;59382;43.852;25.952;2023-01-20T00:33:01;9.25;;;3.60;;
71558;SDS011;59382;43.852;25.952;2023-01-20T00:35:26;9.95;;;4.30;;
71558;SDS011;59382;43.852;25.952;2023-01-20T00:37:52;8.80;;;4.28;;
71558;SDS011;59382;43.852;25.952;2023-01-20T00:40:17;10.90;;;4.28;;
71558;SDS011;59382;43.852;25.952;2023-01-20T00:42:43;13.00;;;4.00;;
71558;SDS011;59382;43.852;25.952;2023-01-20T00:45:08;7.40;;;3.30;;
71558;SDS011;59382;43.852;25.952;2023-01-20T00:47:34;8.27;;;3.58;;
71558;SDS011;59382;43.852;25.952;2023-01-20T00:49:59;9.88;;;4.45;;
71558;SDS011;59382;43.852;25.952;2023-01-20T00:52:25;9.32;;;3.53;;
71558;SDS011;59382;43.852;25.952;2023-01-20T00:54:51;12.77;;;4.25;;
71558;SDS011;59382;43.852;25.952;2023-01-20T00:57:16;4.78;;;2.88;;
71558;SDS011;59382;43.852;25.952;2023-01-20T00:59:41;4.38;;;2.10;;
71558;SDS011;59382;43.852;25.952;2023-01-20T01:02:07;3.17;;;1.55;;
71558;SDS011;59382;43.852;25.952;2023-01-20T01:04:32;3.20;;;1.48;;
71558;SDS011;59382;43.852;25.952;2023-01-20T01:06:58;7.50;;;2.15;;
71558;SDS011;59382;43.852;25.952;2023-01-20T01:09:23;6.75;;;2.97;;
71558;SDS011;59382;43.852;25.952;2023-01-20T01:11:49;6.03;;;2.70;;
71558;SDS011;59382;43.852;25.952;2023-01-20T01:14:14;7.00;;;2.88;;
71558;SDS011;59382;43.852;25.952;2023-01-20T01:16:40;8.75;;;2.22;;
71558;SDS011;59382;43.852;25.952;2023-01-20T01:19:06;7.38;;;2.58;;
71558;SDS011;59382;43.852;25.952;2023-01-20T01:21:32;9.82;;;2.75;;
71558;SDS011;59382;43.852;25.952;2023-01-20T01:23:57;7.85;;;2.55;;
71558;SDS011;59382;43.852;25.952;2023-01-20T01:26:23;7.68;;;2.20;;
71558;SDS011;59382;43.852;25.952;2023-01-20T01:28:48;6.50;;;2.92;;
71558;SDS011;59382;43.852;25.952;2023-01-20T01:31:15;5.65;;;2.38;;
71558;SDS011;59382;43.852;25.952;2023-01-20T01:33:43;4.65;;;2.40;;
71558;SDS011;59382;43.852;25.952;2023-01-20T01:36:11;6.45;;;2.42;;
71558;SDS011;59382;43.852;25.952;2023-01-20T01:38:38;7.70;;;1.98;;
71558;SDS011;59382;43.852;25.952;2023-01-20T01:41:03;7.85;;;2.40;;
71558;SDS011;59382;43.852;25.952;2023-01-20T01:43:31;10.55;;;2.78;;
71558;SDS011;59382;43.852;25.952;2023-01-20T01:45:58;4.88;;;2.15;;
71558;SDS011;59382;43.852;25.952;2023-01-20T01:48:27;6.10;;;2.00;;
71558;SDS011;59382;43.852;25.952;2023-01-20T01:51:05;5.90;;;2.00;;
71558;SDS011;59382;43.852;25.952;2023-01-20T01:53:39;4.05;;;1.42;;
71558;SDS011;59382;43.852;25.952;2023-01-20T01:56:08;7.25;;;1.95;;
71558;SDS011;59382;43.852;25.952;2023-01-20T01:58:36;4.95;;;1.60;;
71558;SDS011;59382;43.852;25.952;2023-01-20T02:01:04;5.38;;;1.73;;
71558;SDS011;59382;43.852;25.952;2023-01-20T02:03:36;8.35;;;1.70;;
71558;SDS011;59382;43.852;25.952;2023-01-20T02:06:11;11.50;;;1.88;;
71558;SDS011;59382;43.852;25.952;2023-01-20T02:08:38;6.28;;;1.70;;
71558;SDS011;59382;43.852;25.952;2023-01-20T02:11:04;9.18;;;1.80;;
71558;SDS011;59382;43.852;25.952;2023-01-20T02:13:30;4.28;;;1.67;;
71558;SDS011;59382;43.852;25.952;2023-01-20T02:18:56;9.13;;;1.80;;
71558;SDS011;59382;43.852;25.952;2023-01-20T02:30:29;8.20;;;2.40;;
71558;SDS011;59382;43.852;25.952;2023-01-20T02:36:02;10.32;;;2.22;;
71558;SDS011;59382;43.852;25.952;2023-01-20T02:43:31;7.15;;;2.72;;
71558;SDS011;59382;43.852;25.952;2023-01-20T02:46:20;13.05;;;2.70;;
71558;SDS011;59382;43.852;25.952;2023-01-20T02:48:53;10.15;;;2.22;;
71558;SDS011;59382;43.852;25.952;2023-01-20T02:51:24;4.22;;;2.13;;
71558;SDS011;59382;43.852;25.952;2023-01-20T02:53:59;6.65;;;1.92;;
71558;SDS011;59382;43.852;25.952;2023-01-20T02:56:30;8.20;;;1.90;;
71558;SDS011;59382;43.852;25.952;2023-01-20T03:04:23;3.88;;;1.88;;
71558;SDS011;59382;43.852;25.952;2023-01-20T03:06:53;7.72;;;2.17;;
71558;SDS011;59382;43.852;25.952;2023-01-20T03:09:35;6.85;;;2.30;;
71558;SDS011;59382;43.852;25.952;2023-01-20T03:14:53;9.10;;;2.03;;
71558;SDS011;59382;43.852;25.952;2023-01-20T03:17:19;12.63;;;2.75;;
71558;SDS011;59382;43.852;25.952;2023-01-20T03:19:46;8.38;;;2.65;;
71558;SDS011;59382;43.852;25.952;2023-01-20T03:22:11;4.22;;;2.35;;
71558;SDS011;59382;43.852;25.952;2023-01-20T03:24:37;7.38;;;2.28;;
71558;SDS011;59382;43.852;25.952;2023-01-20T03:27:05;5.18;;;2.30;;
71558;SDS011;59382;43.852;25.952;2023-01-20T03:29:31;8.00;;;2.63;;
71558;SDS011;59382;43.852;25.952;2023-01-20T03:31:57;7.15;;;2.50;;
71558;SDS011;59382;43.852;25.952;2023-01-20T03:34:26;12.23;;;2.97;;
71558;SDS011;59382;43.852;25.952;2023-01-20T03:36:55;9.32;;;3.03;;
71558;SDS011;59382;43.852;25.952;2023-01-20T03:39:22;8.52;;;2.53;;
71558;SDS011;59382;43.852;25.952;2023-01-20T03:58:11;12.73;;;2.55;;
71558;SDS011;59382;43.852;25.952;2023-01-20T04:00:40;7.90;;;2.50;;
71558;SDS011;59382;43.852;25.952;2023-01-20T04:03:10;7.10;;;1.92;;
71558;SDS011;59382;43.852;25.952;2023-01-20T04:05:42;9.05;;;2.38;;
71558;SDS011;59382;43.852;25.952;2023-01-20T04:08:11;5.28;;;2.35;;
71558;SDS011;59382;43.852;25.952;2023-01-20T04:10:40;8.40;;;2.95;;
71558;SDS011;59382;43.852;25.952;2023-01-20T04:13:07;7.35;;;2.63;;
71558;SDS011;59382;43.852;25.952;2023-01-20T04:15:34;8.68;;;2.95;;
71558;SDS011;59382;43.852;25.952;2023-01-20T04:18:10;7.57;;;2.67;;
71558;SDS011;59382;43.852;25.952;2023-01-20T04:20:42;8.57;;;2.25;;
71558;SDS011;59382;43.852;25.952;2023-01-20T04:23:11;6.47;;;2.50;;
71558;SDS011;59382;43.852;25.952;2023-01-20T04:25:41;7.93;;;2.85;;
71558;SDS011;59382;43.852;25.952;2023-01-20T04:28:07;18.17;;;8.32;;
71558;SDS011;59382;43.852;25.952;2023-01-20T04:30:33;20.48;;;8.23;;
71558;SDS011;59382;43.852;25.952;2023-01-20T04:32:58;16.58;;;9.32;;
71558;SDS011;59382;43.852;25.952;2023-01-20T04:35:24;14.02;;;7.00;;
71558;SDS011;59382;43.852;25.952;2023-01-20T04:37:49;11.63;;;4.45;;
71558;SDS011;59382;43.852;25.952;2023-01-20T04:40:15;11.00;;;3.65;;
71558;SDS011;59382;43.852;25.952;2023-01-20T04:42:56;5.80;;;3.65;;
71558;SDS011;59382;43.852;25.952;2023-01-20T04:45:21;12.82;;;3.33;;
71558;SDS011;59382;43.852;25.952;2023-01-20T04:47:47;15.70;;;5.80;;
71558;SDS011;59382;43.852;25.952;2023-01-20T04:50:12;9.95;;;3.80;;
71558;SDS011;59382;43.852;25.952;2023-01-20T04:52:39;5.20;;;3.05;;
71558;SDS011;59382;43.852;25.952;2023-01-20T04:55:04;6.50;;;2.55;;
71558;SDS011;59382;43.852;25.952;2023-01-20T04:57:30;8.27;;;2.35;;
71558;SDS011;59382;43.852;25.952;2023-01-20T04:59:56;5.63;;;2.28;;
71558;SDS011;59382;43.852;25.952;2023-01-20T05:02:21;5.30;;;2.50;;
71558;SDS011;59382;43.852;25.952;2023-01-20T05:04:47;8.27;;;2.28;;
71558;SDS011;59382;43.852;25.952;2023-01-20T05:07:12;6.28;;;2.30;;
71558;SDS011;59382;43.852;25.952;2023-01-20T05:09:38;10.30;;;2.42;;
71558;SDS011;59382;43.852;25.952;2023-01-20T05:12:03;59.58;;;7.30;;
71558;SDS011;59382;43.852;25.952;2023-01-20T05:14:30;11.02;;;2.50;;
71558;SDS011;59382;43.852;25.952;2023-01-20T05:16:55;7.10;;;2.38;;
71558;SDS011;59382;43.852;25.952;2023-01-20T05:19:21;3.95;;;2.28;;
71558;SDS011;59382;43.852;25.952;2023-01-20T05:21:46;4.13;;;2.10;;
71558;SDS011;59382;43.852;25.952;2023-01-20T05:24:12;9.65;;;2.03;;
71558;SDS011;59382;43.852;25.952;2023-01-20T05:26:37;4.75;;;2.03;;
71558;SDS011;59382;43.852;25.952;2023-01-20T05:29:03;3.33;;;1.92;;
71558;SDS011;59382;43.852;25.952;2023-01-20T05:31:29;8.48;;;2.28;;
71558;SDS011;59382;43.852;25.952;2023-01-20T05:33:55;4.32;;;1.98;;
71558;SDS011;59382;43.852;25.952;2023-01-20T05:36:21;5.93;;;2.15;;
71558;SDS011;59382;43.852;25.952;2023-01-20T05:38:46;5.25;;;2.13;;
71558;SDS011;59382;43.852;25.952;2023-01-20T05:41:12;5.03;;;2.70;;
71558;SDS011;59382;43.852;25.952;2023-01-20T05:43:38;10.70;;;2.95;;
71558;SDS011;59382;43.852;25.952;2023-01-20T05:46:03;7.75;;;2.40;;
71558;SDS011;59382;43.852;25.952;2023-01-20T05:48:30;3.47;;;1.73;;
71558;SDS011;59382;43.852;25.952;2023-01-20T05:50:56;10.60;;;3.15;;
71558;SDS011;59382;43.852;25.952;2023-01-20T05:53:21;4.85;;;2.13;;
71558;SDS011;59382;43.852;25.952;2023-01-20T05:55:47;6.65;;;2.25;;
71558;SDS011;59382;43.852;25.952;2023-01-20T05:58:13;8.65;;;3.17;;
71558;SDS011;59382;43.852;25.952;2023-01-20T06:00:39;6.28;;;2.80;;
71558;SDS011;59382;43.852;25.952;2023-01-20T06:03:04;8.73;;;2.75;;
71558;SDS011;59382;43.852;25.952;2023-01-20T06:05:30;14.27;;;3.25;;
71558;SDS011;59382;43.852;25.952;2023-01-20T06:07:56;6.72;;;2.78;;
71558;SDS011;59382;43.852;25.952;2023-01-20T06:10:22;10.52;;;3.67;;
71558;SDS011;59382;43.852;25.952;2023-01-20T06:12:52;12.43;;;4.65;;
71558;SDS011;59382;43.852;25.952;2023-01-20T06:15:19;12.10;;;4.43;;
71558;SDS011;59382;43.852;25.952;2023-01-20T06:17:47;11.90;;;3.97;;
71558;SDS011;59382;43.852;25.952;2023-01-20T06:20:13;6.78;;;3.38;;
71558;SDS011;59382;43.852;25.952;2023-01-20T06:22:38;8.00;;;5.05;;
71558;SDS011;59382;43.852;25.952;2023-01-20T06:25:04;13.77;;;6.00;;
71558;SDS011;59382;43.852;25.952;2023-01-20T06:27:30;8.80;;;5.55;;
71558;SDS011;59382;43.852;25.952;2023-01-20T06:29:55;13.18;;;6.47;;
71558;SDS011;59382;43.852;25.952;2023-01-20T06:32:20;12.80;;;4.20;;
71558;SDS011;59382;43.852;25.952;2023-01-20T06:34:46;7.75;;;3.83;;
71558;SDS011;59382;43.852;25.952;2023-01-20T06:37:11;9.48;;;4.20;;
71558;SDS011;59382;43.852;25.952;2023-01-20T06:39:37;19.90;;;5.13;;
71558;SDS011;59382;43.852;25.952;2023-01-20T06:42:04;10.00;;;3.55;;
71558;SDS011;59382;43.852;25.952;2023-01-20T06:44:30;9.45;;;3.30;;
71558;SDS011;59382;43.852;25.952;2023-01-20T06:46:57;13.75;;;4.05;;
71558;SDS011;59382;43.852;25.952;2023-01-20T06:49:23;12.38;;;3.63;;
71558;SDS011;59382;43.852;25.952;2023-01-20T06:51:49;7.55;;;3.80;;
71558;SDS011;59382;43.852;25.952;2023-01-20T06:54:14;8.63;;;4.25;;
71558;SDS011;59382;43.852;25.952;2023-01-20T06:56:40;8.77;;;3.45;;
71558;SDS011;59382;43.852;25.952;2023-01-20T06:59:08;17.33;;;4.75;;
71558;SDS011;59382;43.852;25.952;2023-01-20T07:01:34;7.70;;;3.83;;
71558;SDS011;59382;43.852;25.952;2023-01-20T07:06:59;7.13;;;3.85;;
71558;SDS011;59382;43.852;25.952;2023-01-20T07:09:25;14.60;;;4.97;;
71558;SDS011;59382;43.852;25.952;2023-01-20T07:11:50;12.27;;;4.28;;
71558;SDS011;59382;43.852;25.952;2023-01-20T07:14:17;9.38;;;4.20;;
71558;SDS011;59382;43.852;25.952;2023-01-20T07:16:43;8.48;;;3.60;;
71558;SDS011;59382;43.852;25.952;2023-01-20T07:19:10;7.32;;;4.07;;
71558;SDS011;59382;43.852;25.952;2023-01-20T07:21:39;9.02;;;4.38;;
71558;SDS011;59382;43.852;25.952;2023-01-20T07:24:12;13.40;;;5.80;;
71558;SDS011;59382;43.852;25.952;2023-01-20T07:26:39;8.82;;;4.22;;
71558;SDS011;59382;43.852;25.952;2023-01-20T07:29:06;10.30;;;3.88;;
71558;SDS011;59382;43.852;25.952;2023-01-20T07:31:32;8.07;;;3.92;;
71558;SDS011;59382;43.852;25.952;2023-01-20T07:33:58;15.88;;;6.18;;
71558;SDS011;59382;43.852;25.952;2023-01-20T07:36:26;10.88;;;4.75;;
71558;SDS011;59382;43.852;25.952;2023-01-20T07:38:53;22.77;;;5.30;;
71558;SDS011;59382;43.852;25.952;2023-01-20T07:41:21;15.30;;;5.32;;
71558;SDS011;59382;43.852;25.952;2023-01-20T07:43:48;12.55;;;5.13;;
71558;SDS011;59382;43.852;25.952;2023-01-20T07:46:17;7.07;;;4.53;;
71558;SDS011;59382;43.852;25.952;2023-01-20T07:48:44;10.82;;;4.63;;
71558;SDS011;59382;43.852;25.952;2023-01-20T07:51:13;10.90;;;4.20;;
71558;SDS011;59382;43.852;25.952;2023-01-20T07:53:43;11.30;;;5.20;;
71558;SDS011;59382;43.852;25.952;2023-01-20T07:56:24;13.75;;;4.65;;
71558;SDS011;59382;43.852;25.952;2023-01-20T07:58:54;11.13;;;4.28;;
71558;SDS011;59382;43.852;25.952;2023-01-20T08:01:23;13.82;;;5.35;;
71558;SDS011;59382;43.852;25.952;2023-01-20T08:03:54;12.27;;;4.80;;
71558;SDS011;59382;43.852;25.952;2023-01-20T08:06:22;11.63;;;4.53;;
71558;SDS011;59382;43.852;25.952;2023-01-20T08:08:52;10.60;;;4.30;;
71558;SDS011;59382;43.852;25.952;2023-01-20T08:11:20;16.77;;;4.85;;
71558;SDS011;59382;43.852;25.952;2023-01-20T08:13:55;9.73;;;4.20;;
71558;SDS011;59382;43.852;25.952;2023-01-20T08:16:22;7.45;;;4.03;;
71558;SDS011;59382;43.852;25.952;2023-01-20T08:18:48;16.35;;;4.00;;
71558;SDS011;59382;43.852;25.952;2023-01-20T08:21:17;10.32;;;4.20;;
71558;SDS011;59382;43.852;25.952;2023-01-20T08:23:47;8.00;;;3.63;;
71558;SDS011;59382;43.852;25.952;2023-01-20T08:26:15;9.05;;;3.90;;
71558;SDS011;59382;43.852;25.952;2023-01-20T08:28:41;10.30;;;4.45;;
71558;SDS011;59382;43.852;25.952;2023-01-20T08:31:12;8.10;;;4.07;;
71558;SDS011;59382;43.852;25.952;2023-01-20T08:33:40;9.98;;;3.92;;
71558;SDS011;59382;43.852;25.952;2023-01-20T08:36:17;8.35;;;3.53;;
71558;SDS011;59382;43.852;25.952;2023-01-20T08:38:44;11.00;;;3.67;;
71558;SDS011;59382;43.852;25.952;2023-01-20T08:41:12;7.55;;;3.35;;
71558;SDS011;59382;43.852;25.952;2023-01-20T08:43:40;6.70;;;2.90;;
71558;SDS011;59382;43.852;25.952;2023-01-20T08:46:06;6.97;;;3.10;;
71558;SDS011;59382;43.852;25.952;2023-01-20T08:48:35;11.10;;;3.65;;
71558;SDS011;59382;43.852;25.952;2023-01-20T08:51:04;5.30;;;3.10;;
71558;SDS011;59382;43.852;25.952;2023-01-20T08:53:32;11.27;;;2.78;;
71558;SDS011;59382;43.852;25.952;2023-01-20T08:55:58;7.30;;;3.10;;
71558;SDS011;59382;43.852;25.952;2023-01-20T08:58:26;6.93;;;3.25;;
71558;SDS011;59382;43.852;25.952;2023-01-20T09:00:55;5.55;;;3.05;;
71558;SDS011;59382;43.852;25.952;2023-01-20T09:03:21;7.15;;;3.38;;
71558;SDS011;59382;43.852;25.952;2023-01-20T09:05:47;7.22;;;2.97;;
71558;SDS011;59382;43.852;25.952;2023-01-20T09:08:13;4.55;;;2.70;;
71558;SDS011;59382;43.852;25.952;2023-01-20T09:10:41;11.45;;;3.05;;
71558;SDS011;59382;43.852;25.952;2023-01-20T09:13:07;9.90;;;3.40;;
71558;SDS011;59382;43.852;25.952;2023-01-20T09:15:33;7.07;;;3.50;;
71558;SDS011;59382;43.852;25.952;2023-01-20T09:17:58;6.97;;;3.05;;
71558;SDS011;59382;43.852;25.952;2023-01-20T09:20:27;8.25;;;2.67;;
71558;SDS011;59382;43.852;25.952;2023-01-20T09:22:55;9.82;;;3.15;;
71558;SDS011;59382;43.852;25.952;2023-01-20T09:25:25;12.73;;;3.97;;
71558;SDS011;59382;43.852;25.952;2023-01-20T09:27:51;7.68;;;2.95;;
71558;SDS011;59382;43.852;25.952;2023-01-20T09:30:16;9.88;;;3.65;;
71558;SDS011;59382;43.852;25.952;2023-01-20T09:32:43;7.80;;;3.22;;
71558;SDS011;59382;43.852;25.952;2023-01-20T09:35:10;6.45;;;3.00;;
71558;SDS011;59382;43.852;25.952;2023-01-20T09:37:36;5.40;;;2.88;;
71558;SDS011;59382;43.852;25.952;2023-01-20T09:40:21;7.00;;;3.33;;
71558;SDS011;59382;43.852;25.952;2023-01-20T09:46:20;6.90;;;3.35;;
71558;SDS011;59382;43.852;25.952;2023-01-20T09:55:07;11.05;;;3.15;;
71558;SDS011;59382;43.852;25.952;2023-01-20T09:57:37;5.80;;;3.70;;
71558;SDS011;59382;43.852;25.952;2023-01-20T10:00:14;4.13;;;2.75;;
71558;SDS011;59382;43.852;25.952;2023-01-20T10:02:47;4.45;;;2.78;;
71558;SDS011;59382;43.852;25.952;2023-01-20T10:05:20;7.05;;;2.55;;
71558;SDS011;59382;43.852;25.952;2023-01-20T10:07:52;4.45;;;3.22;;
71558;SDS011;59382;43.852;25.952;2023-01-20T10:10:23;12.70;;;2.45;;
71558;SDS011;59382;43.852;25.952;2023-01-20T10:13:07;6.35;;;2.60;;
71558;SDS011;59382;43.852;25.952;2023-01-20T10:15:54;16.75;;;2.65;;
71558;SDS011;59382;43.852;25.952;2023-01-20T10:18:29;3.35;;;2.08;;
71558;SDS011;59382;43.852;25.952;2023-01-20T10:21:10;4.45;;;2.00;;
71558;SDS011;59382;43.852;25.952;2023-01-20T10:26:27;18.58;;;2.85;;
71558;SDS011;59382;43.852;25.952;2023-01-20T10:28:58;15.18;;;2.55;;
71558;SDS011;59382;43.852;25.952;2023-01-20T10:31:26;13.18;;;2.17;;
71558;SDS011;59382;43.852;25.952;2023-01-20T10:33:54;8.43;;;1.42;;
71558;SDS011;59382;43.852;25.952;2023-01-20T10:36:28;3.53;;;1.88;;
71558;SDS011;59382;43.852;25.952;2023-01-20T10:39:03;5.60;;;1.77;;
71558;SDS011;59382;43.852;25.952;2023-01-20T10:41:46;8.15;;;1.83;;
71558;SDS011;59382;43.852;25.952;2023-01-20T10:44:16;6.75;;;1.65;;
71558;SDS011;59382;43.852;25.952;2023-01-20T10:49:32;6.22;;;1.63;;
71558;SDS011;59382;43.852;25.952;2023-01-20T10:52:28;2.33;;;1.80;;
71558;SDS011;59382;43.852;25.952;2023-01-20T10:57:43;12.95;;;1.92;;
71558;SDS011;59382;43.852;25.952;2023-01-20T11:00:19;2.45;;;1.60;;
71558;SDS011;59382;43.852;25.952;2023-01-20T11:02:48;5.68;;;2.42;;
71558;SDS011;59382;43.852;25.952;2023-01-20T11:05:17;6.63;;;1.77;;
71558;SDS011;59382;43.852;25.952;2023-01-20T11:07:46;4.45;;;1.65;;
71558;SDS011;59382;43.852;25.952;2023-01-20T11:10:17;5.20;;;1.50;;
71558;SDS011;59382;43.852;25.952;2023-01-20T11:12:54;10.30;;;2.22;;
71558;SDS011;59382;43.852;25.952;2023-01-20T11:15:28;6.60;;;1.55;;
71558;SDS011;59382;43.852;25.952;2023-01-20T11:20:45;3.83;;;1.88;;
71558;SDS011;59382;43.852;25.952;2023-01-20T11:23:47;12.68;;;1.65;;
71558;SDS011;59382;43.852;25.952;2023-01-20T11:28:52;5.78;;;1.75;;
71558;SDS011;59382;43.852;25.952;2023-01-20T11:31:31;9.20;;;1.95;;
71558;SDS011;59382;43.852;25.952;2023-01-20T11:36:44;6.57;;;1.73;;
71558;SDS011;59382;43.852;25.952;2023-01-20T11:39:33;4.40;;;1.88;;
71558;SDS011;59382;43.852;25.952;2023-01-20T11:42:19;3.88;;;1.90;;
71558;SDS011;59382;43.852;25.952;2023-01-20T11:44:59;5.30;;;2.30;;
71558;SDS011;59382;43.852;25.952;2023-01-20T11:52:30;13.07;;;2.20;;
71558;SDS011;59382;43.852;25.952;2023-01-20T11:55:09;3.80;;;1.73;;
71558;SDS011;59382;43.852;25.952;2023-01-20T12:08:29;2.25;;;1.10;;
71558;SDS011;59382;43.852;25.952;2023-01-20T12:10:57;3.28;;;1.60;;
71558;SDS011;59382;43.852;25.952;2023-01-20T12:13:39;2.95;;;1.63;;
71558;SDS011;59382;43.852;25.952;2023-01-20T12:16:39;8.57;;;2.10;;
71558;SDS011;59382;43.852;25.952;2023-01-20T12:19:08;6.28;;;1.40;;
71558;SDS011;59382;43.852;25.952;2023-01-20T12:21:41;3.92;;;1.67;;
71558;SDS011;59382;43.852;25.952;2023-01-20T12:24:21;18.52;;;1.55;;
71558;SDS011;59382;43.852;25.952;2023-01-20T12:26:49;4.15;;;1.30;;
71558;SDS011;59382;43.852;25.952;2023-01-20T12:29:35;2.10;;;1.52;;
71558;SDS011;59382;43.852;25.952;2023-01-20T12:32:09;13.15;;;1.50;;
71558;SDS011;59382;43.852;25.952;2023-01-20T12:34:35;4.32;;;1.38;;
71558;SDS011;59382;43.852;25.952;2023-01-20T12:43:28;6.13;;;1.80;;
71558;SDS011;59382;43.852;25.952;2023-01-20T12:46:02;7.57;;;1.73;;
71558;SDS011;59382;43.852;25.952;2023-01-20T12:53:48;0.82;;;0.82;;
71558;SDS011;59382;43.852;25.952;2023-01-20T12:59:29;4.00;;;0.80;;
71558;SDS011;59382;43.852;25.952;2023-01-20T13:13:49;10.63;;;1.50;;
71558;SDS011;59382;43.852;25.952;2023-01-20T13:19:10;4.88;;;0.73;;
71558;SDS011;59382;43.852;25.952;2023-01-20T13:21:38;5.75;;;0.43;;
71558;SDS011;59382;43.852;25.952;2023-01-20T13:24:06;0.22;;;0.22;;
71558;SDS011;59382;43.852;25.952;2023-01-20T13:26:39;0.47;;;0.35;;
71558;SDS011;59382;43.852;25.952;2023-01-20T13:29:14;0.95;;;0.40;;
71558;SDS011;59382;43.852;25.952;2023-01-20T13:31:45;1.05;;;0.60;;
71558;SDS011;59382;43.852;25.952;2023-01-20T13:50:40;4.45;;;1.20;;
71558;SDS011;59382;43.852;25.952;2023-01-20T13:58:17;5.82;;;1.00;;
71558;SDS011;59382;43.852;25.952;2023-01-20T14:00:52;7.80;;;2.28;;
71558;SDS011;59382;43.852;25.952;2023-01-20T14:03:20;4.15;;;0.77;;
71558;SDS011;59382;43.852;25.952;2023-01-20T14:05:51;0.98;;;0.90;;
71558;SDS011;59382;43.852;25.952;2023-01-20T14:08:19;5.05;;;0.60;;
71558;SDS011;59382;43.852;25.952;2023-01-20T14:10:47;2.60;;;0.93;;
71558;SDS011;59382;43.852;25.952;2023-01-20T14:13:23;1.33;;;0.75;;
71558;SDS011;59382;43.852;25.952;2023-01-20T14:18:19;2.15;;;1.23;;
71558;SDS011;59382;43.852;25.952;2023-01-20T14:20:57;1.80;;;1.23;;
71558;SDS011;59382;43.852;25.952;2023-01-20T14:23:26;2.92;;;1.13;;
71558;SDS011;59382;43.852;25.952;2023-01-20T14:25:56;2.03;;;0.70;;
71558;SDS011;59382;43.852;25.952;2023-01-20T14:28:26;8.70;;;0.90;;
71558;SDS011;59382;43.852;25.952;2023-01-20T14:33:48;17.05;;;1.45;;
71558;SDS011;59382;43.852;25.952;2023-01-20T14:36:25;9.15;;;0.82;;
71558;SDS011;59382;43.852;25.952;2023-01-20T14:38:56;13.25;;;0.80;;
71558;SDS011;59382;43.852;25.952;2023-01-20T14:41:25;4.60;;;0.55;;
71558;SDS011;59382;43.852;25.952;2023-01-20T14:43:54;6.80;;;0.80;;
71558;SDS011;59382;43.852;25.952;2023-01-20T14:46:20;4.45;;;0.70;;
71558;SDS011;59382;43.852;25.952;2023-01-20T14:48:47;1.25;;;0.70;;
71558;SDS011;59382;43.852;25.952;2023-01-20T14:51:13;4.28;;;0.77;;
71558;SDS011;59382;43.852;25.952;2023-01-20T14:53:39;5.15;;;0.70;;
71558;SDS011;59382;43.852;25.952;2023-01-20T14:56:05;7.38;;;1.05;;
71558;SDS011;59382;43.852;25.952;2023-01-20T14:58:32;2.33;;;0.77;;
71558;SDS011;59382;43.852;25.952;2023-01-20T15:01:04;0.65;;;0.45;;
71558;SDS011;59382;43.852;25.952;2023-01-20T15:03:31;0.40;;;0.40;;
71558;SDS011;59382;43.852;25.952;2023-01-20T15:06:01;0.77;;;0.70;;
71558;SDS011;59382;43.852;25.952;2023-01-20T15:16:18;1.70;;;1.13;;
71558;SDS011;59382;43.852;25.952;2023-01-20T15:21:45;2.85;;;1.10;;
71558;SDS011;59382;43.852;25.952;2023-01-20T15:24:29;4.88;;;1.45;;
71558;SDS011;59382;43.852;25.952;2023-01-20T15:26:56;1.90;;;1.35;;
71558;SDS011;59382;43.852;25.952;2023-01-20T15:29:28;4.82;;;1.75;;
71558;SDS011;59382;43.852;25.952;2023-01-20T15:31:56;4.40;;;1.60;;
71558;SDS011;59382;43.852;25.952;2023-01-20T15:34:23;3.75;;;1.30;;
71558;SDS011;59382;43.852;25.952;2023-01-20T15:36:50;1.80;;;1.30;;
71558;SDS011;59382;43.852;25.952;2023-01-20T15:39:17;4.22;;;2.55;;
71558;SDS011;59382;43.852;25.952;2023-01-20T15:41:44;5.45;;;2.45;;
71558;SDS011;59382;43.852;25.952;2023-01-20T15:44:13;9.82;;;2.90;;
71558;SDS011;59382;43.852;25.952;2023-01-20T15:46:39;6.78;;;2.65;;
71558;SDS011;59382;43.852;25.952;2023-01-20T15:49:14;6.45;;;1.80;;
71558;SDS011;59382;43.852;25.952;2023-01-20T15:51:40;3.08;;;1.70;;
71558;SDS011;59382;43.852;25.952;2023-01-20T15:54:09;9.65;;;3.63;;
71558;SDS011;59382;43.852;25.952;2023-01-20T15:56:39;2.10;;;1.38;;
71558;SDS011;59382;43.852;25.952;2023-01-20T15:59:16;2.03;;;1.45;;
71558;SDS011;59382;43.852;25.952;2023-01-20T16:01:45;2.13;;;1.50;;
71558;SDS011;59382;43.852;25.952;2023-01-20T16:04:12;2.17;;;1.30;;
71558;SDS011;59382;43.852;25.952;2023-01-20T16:06:37;1.98;;;1.50;;
71558;SDS011;59382;43.852;25.952;2023-01-20T16:09:12;1.77;;;1.02;;
71558;SDS011;59382;43.852;25.952;2023-01-20T16:11:43;5.10;;;0.90;;
71558;SDS011;59382;43.852;25.952;2023-01-20T16:14:09;2.78;;;0.95;;
71558;SDS011;59382;43.852;25.952;2023-01-20T16:16:35;1.83;;;1.38;;
71558;SDS011;59382;43.852;25.952;2023-01-20T16:19:01;1.95;;;1.00;;
71558;SDS011;59382;43.852;25.952;2023-01-20T16:21:26;2.10;;;1.00;;
71558;SDS011;59382;43.852;25.952;2023-01-20T16:23:52;5.78;;;1.23;;
71558;SDS011;59382;43.852;25.952;2023-01-20T16:26:25;6.10;;;1.20;;
71558;SDS011;59382;43.852;25.952;2023-01-20T16:28:53;4.13;;;0.60;;
71558;SDS011;59382;43.852;25.952;2023-01-20T16:31:20;8.40;;;1.60;;
71558;SDS011;59382;43.852;25.952;2023-01-20T16:33:47;5.18;;;2.00;;
71558;SDS011;59382;43.852;25.952;2023-01-20T16:36:14;1.92;;;1.30;;
71558;SDS011;59382;43.852;25.952;2023-01-20T16:38:41;3.25;;;1.40;;
71558;SDS011;59382;43.852;25.952;2023-01-20T16:41:19;2.33;;;1.20;;
71558;SDS011;59382;43.852;25.952;2023-01-20T16:43:46;2.47;;;1.30;;
71558;SDS011;59382;43.852;25.952;2023-01-20T16:46:22;3.00;;;1.40;;
71558;SDS011;59382;43.852;25.952;2023-01-20T16:48:50;2.03;;;1.38;;
71558;SDS011;59382;43.852;25.952;2023-01-20T16:51:17;2.75;;;1.60;;
71558;SDS011;59382;43.852;25.952;2023-01-20T16:53:44;2.17;;;1.63;;
71558;SDS011;59382;43.852;25.952;2023-01-20T16:56:16;3.30;;;1.40;;
71558;SDS011;59382;43.852;25.952;2023-01-20T16:58:51;4.78;;;1.20;;
71558;SDS011;59382;43.852;25.952;2023-01-20T17:01:18;19.58;;;8.73;;
71558;SDS011;59382;43.852;25.952;2023-01-20T17:03:49;12.80;;;4.47;;
71558;SDS011;59382;43.852;25.952;2023-01-20T17:06:16;7.35;;;2.53;;
71558;SDS011;59382;43.852;25.952;2023-01-20T17:08:50;4.22;;;1.30;;
71558;SDS011;59382;43.852;25.952;2023-01-20T17:11:21;2.15;;;1.08;;
71558;SDS011;59382;43.852;25.952;2023-01-20T17:13:47;4.22;;;2.13;;
71558;SDS011;59382;43.852;25.952;2023-01-20T17:16:13;3.90;;;1.30;;
71558;SDS011;59382;43.852;25.952;2023-01-20T17:18:39;2.70;;;1.40;;